Time,TemperatureF,DewpointF,PressureIn,WindDirection,WindDirectionDegrees,WindSpeedMPH,WindSpeedGustMPH,Humidity,HourlyPrecipIn,Conditions,Clouds,dailyrainin,SolarRadiationWatts/m^2,SoftwareType,DateUTC
2013-07-24 00:02:00,48.0,47.0,30.06,North,5,5.0,9.0,97,0.00,,,0.00,0.000000,,2013-07-24 07:02:00,
2013-07-24 00:11:00,48.0,47.0,30.06,North,5,5.0,9.0,97,0.00,,,0.00,0.000000,,2013-07-24 07:11:00,
2013-07-24 00:22:00,48.0,47.0,30.06,NNE,12,11.0,16.0,97,0.00,,,0.00,0.000000,,2013-07-24 07:22:00,
2013-07-24 00:43:00,48.0,47.0,30.06,NNE,15,9.0,13.0,97,0.00,,,0.00,0.000000,,2013-07-24 07:43:00,
2013-07-24 00:52:00,48.0,47.0,30.06,NNE,15,9.0,13.0,97,0.00,,,0.00,0.000000,,2013-07-24 07:52:00,
2013-07-24 01:02:00,48.0,47.0,30.06,NNE,22,12.0,16.0,97,0.00,,,0.00,0.000000,,2013-07-24 08:02:00,
2013-07-24 01:11:00,48.0,47.0,30.06,NNE,22,12.0,16.0,97,0.00,,,0.00,0.000000,,2013-07-24 08:11:00,
2013-07-24 01:22:00,48.0,47.0,30.06,North,6,12.0,15.0,97,0.00,,,0.00,0.000000,,2013-07-24 08:22:00,
2013-07-24 01:32:00,48.0,47.0,30.06,NNE,13,14.0,17.0,97,0.00,,,0.00,0.000000,,2013-07-24 08:32:00,
2013-07-24 01:42:00,48.0,47.0,30.06,NNE,12,13.0,16.0,97,0.00,,,0.00,0.000000,,2013-07-24 08:42:00,
2013-07-24 01:52:00,48.0,47.0,30.06,NNE,12,13.0,16.0,97,0.00,,,0.00,0.000000,,2013-07-24 08:52:00,
2013-07-24 02:02:00,47.0,46.0,30.05,North,7,12.0,16.0,97,0.00,,,0.00,0.000000,,2013-07-24 09:02:00,
2013-07-24 02:11:00,47.0,46.0,30.05,North,7,12.0,16.0,97,0.00,,,0.00,0.000000,,2013-07-24 09:11:00,
2013-07-24 02:22:00,48.0,47.0,30.06,NNE,12,9.0,18.0,98,0.00,,,0.00,0.000000,,2013-07-24 09:22:00,
2013-07-24 02:32:00,48.0,47.0,30.06,NNE,12,9.0,18.0,98,0.00,,,0.00,0.000000,,2013-07-24 09:32:00,
2013-07-24 02:43:00,48.0,47.0,30.05,North,4,7.0,16.0,98,0.00,,,0.00,0.000000,,2013-07-24 09:43:00,
2013-07-24 02:53:00,48.0,47.0,30.05,North,4,7.0,16.0,98,0.00,,,0.00,0.000000,,2013-07-24 09:53:00,
2013-07-24 03:02:00,48.0,47.0,30.06,North,358,7.0,10.0,98,0.00,,,0.00,0.000000,,2013-07-24 10:02:00,
2013-07-24 03:11:00,48.0,47.0,30.06,North,358,7.0,10.0,98,0.00,,,0.00,0.000000,,2013-07-24 10:11:00,
2013-07-24 03:22:00,48.0,47.0,30.06,NNW,344,6.0,9.0,98,0.00,,,0.00,0.000000,,2013-07-24 10:22:00,
2013-07-24 03:32:00,48.0,47.0,30.06,NNW,344,6.0,9.0,98,0.00,,,0.00,0.000000,,2013-07-24 10:32:00,
2013-07-24 03:43:00,48.0,47.0,30.07,NNE,31,5.0,9.0,98,0.00,,,0.00,0.000000,,2013-07-24 10:43:00,
2013-07-24 03:53:00,48.0,47.0,30.07,NNE,31,5.0,9.0,98,0.00,,,0.00,0.000000,,2013-07-24 10:53:00,
2013-07-24 04:02:00,48.0,47.0,30.07,NNE,17,5.0,9.0,98,0.00,,,0.00,0.000000,,2013-07-24 11:02:00,
2013-07-24 04:22:00,48.0,47.0,30.07,North,7,8.0,11.0,98,0.00,,,0.00,0.000000,,2013-07-24 11:22:00,
2013-07-24 04:32:00,48.0,47.0,30.07,NNE,27,5.0,8.0,98,0.00,,,0.00,0.000000,,2013-07-24 11:32:00,
2013-07-24 04:43:00,48.0,47.0,30.07,NNE,21,3.0,8.0,98,0.00,,,0.00,0.000000,,2013-07-24 11:43:00,
2013-07-24 04:52:00,48.0,47.0,30.07,NNE,21,3.0,8.0,98,0.00,,,0.00,0.000000,,2013-07-24 11:52:00,
2013-07-24 05:02:00,49.0,48.0,30.06,NE,46,2.0,8.0,98,0.00,,,0.00,0.000000,,2013-07-24 12:02:00,
2013-07-24 05:11:00,49.0,48.0,30.06,NE,46,2.0,8.0,98,0.00,,,0.00,0.000000,,2013-07-24 12:11:00,
2013-07-24 05:22:00,49.0,48.0,30.07,NNW,327,2.0,4.0,98,0.00,,,0.00,0.000000,,2013-07-24 12:22:00,
2013-07-24 05:32:00,49.0,48.0,30.07,NNW,327,2.0,4.0,98,0.00,,,0.00,0.000000,,2013-07-24 12:32:00,
2013-07-24 05:42:00,48.0,47.0,30.07,NNE,25,10.0,15.0,98,0.00,,,0.00,0.000000,,2013-07-24 12:42:00,
2013-07-24 05:52:00,48.0,47.0,30.07,NNE,25,10.0,15.0,98,0.00,,,0.00,0.000000,,2013-07-24 12:52:00,
2013-07-24 06:02:00,48.0,47.0,30.07,NNE,25,10.0,15.0,98,0.00,,,0.00,0.000000,,2013-07-24 13:02:00,
2013-07-24 06:22:00,49.0,48.0,30.07,North,4,7.0,15.0,98,0.00,,,0.00,0.000000,,2013-07-24 13:22:00,
2013-07-24 06:32:00,48.0,47.0,30.07,North,354,7.0,10.0,98,0.00,,,0.00,0.000000,,2013-07-24 13:32:00,
2013-07-24 06:43:00,49.0,48.0,30.07,North,10,5.0,12.0,98,0.00,,,0.00,12.000000,,2013-07-24 13:43:00,
2013-07-24 06:53:00,49.0,48.0,30.07,North,10,5.0,12.0,98,0.00,,,0.00,12.000000,,2013-07-24 13:53:00,
2013-07-24 07:11:00,49.0,48.0,30.07,NNE,25,7.0,11.0,98,0.00,,,0.00,23.000000,,2013-07-24 14:11:00,
2013-07-24 07:22:00,50.0,49.0,30.06,NE,40,4.0,11.0,98,0.00,,,0.00,39.000000,,2013-07-24 14:22:00,
2013-07-24 07:32:00,50.0,49.0,30.06,NE,40,4.0,11.0,98,0.00,,,0.00,39.000000,,2013-07-24 14:32:00,
2013-07-24 07:43:00,48.0,47.0,30.06,North,11,9.0,14.0,98,0.00,,,0.00,53.000000,,2013-07-24 14:43:00,
2013-07-24 07:55:00,48.0,47.0,30.06,North,11,9.0,14.0,98,0.00,,,0.00,53.000000,,2013-07-24 14:55:00,
2013-07-24 08:02:00,48.0,47.0,30.06,North,11,9.0,14.0,98,0.00,,,0.00,53.000000,,2013-07-24 15:02:00,
2013-07-24 08:11:00,49.0,48.0,30.06,North,7,9.0,13.0,98,0.00,,,0.00,84.000000,,2013-07-24 15:11:00,
2013-07-24 08:32:00,50.0,49.0,30.07,NNE,14,10.0,15.0,98,0.00,,,0.00,95.000000,,2013-07-24 15:32:00,
2013-07-24 08:43:00,49.0,48.0,30.07,North,5,13.0,16.0,98,0.00,,,0.00,104.000000,,2013-07-24 15:43:00,
2013-07-24 08:52:00,49.0,48.0,30.07,North,5,13.0,16.0,98,0.00,,,0.00,104.000000,,2013-07-24 15:52:00,
2013-07-24 09:02:00,48.0,47.0,30.07,North,11,10.0,16.0,98,0.00,,,0.00,139.000000,,2013-07-24 16:02:00,
2013-07-24 09:12:00,48.0,47.0,30.07,NNE,18,9.0,15.0,98,0.00,,,0.00,160.000000,,2013-07-24 16:12:00,
2013-07-24 09:22:00,48.0,47.0,30.07,NNE,18,9.0,15.0,98,0.00,,,0.00,160.000000,,2013-07-24 16:22:00,
2013-07-24 09:32:00,49.0,48.0,30.08,North,7,14.0,18.0,98,0.00,,,0.00,174.000000,,2013-07-24 16:32:00,
2013-07-24 09:43:00,49.0,48.0,30.08,North,11,13.0,18.0,98,0.00,,,0.00,163.000000,,2013-07-24 16:43:00,
2013-07-24 09:53:00,49.0,48.0,30.08,North,11,13.0,18.0,98,0.00,,,0.00,163.000000,,2013-07-24 16:53:00,
2013-07-24 10:02:00,49.0,48.0,30.08,North,352,10.0,16.0,98,0.00,,,0.00,174.000000,,2013-07-24 17:02:00,
2013-07-24 10:12:00,49.0,48.0,30.07,NNE,13,11.0,15.0,98,0.00,,,0.00,202.000000,,2013-07-24 17:12:00,
2013-07-24 10:22:00,49.0,48.0,30.07,NNE,13,11.0,15.0,98,0.00,,,0.00,202.000000,,2013-07-24 17:22:00,
2013-07-24 10:33:00,49.0,48.0,30.07,NNE,17,10.0,16.0,98,0.00,,,0.00,216.000000,,2013-07-24 17:33:00,
2013-07-24 10:53:00,50.0,49.0,30.07,North,7,10.0,17.0,98,0.00,,,0.00,258.000000,,2013-07-24 17:53:00,
2013-07-24 11:02:00,49.0,48.0,30.07,NNE,33,12.0,17.0,98,0.00,,,0.00,297.000000,,2013-07-24 18:02:00,
2013-07-24 11:11:00,50.0,49.0,30.08,North,8,13.0,19.0,98,0.00,,,0.00,308.000000,,2013-07-24 18:11:00,
2013-07-24 11:22:00,50.0,49.0,30.08,North,8,13.0,19.0,98,0.00,,,0.00,308.000000,,2013-07-24 18:22:00,
2013-07-24 11:32:00,50.0,49.0,30.08,North,4,12.0,18.0,97,0.00,,,0.00,339.000000,,2013-07-24 18:32:00,
2013-07-24 11:43:00,51.0,50.0,30.08,North,7,12.0,17.0,98,0.00,,,0.00,374.000000,,2013-07-24 18:43:00,
2013-07-24 11:52:00,51.0,50.0,30.08,North,7,12.0,17.0,98,0.00,,,0.00,374.000000,,2013-07-24 18:52:00,
2013-07-24 12:02:00,50.0,49.0,30.08,North,7,15.0,21.0,97,0.00,,,0.00,383.000000,,2013-07-24 19:02:00,
2013-07-24 12:12:00,50.0,49.0,30.08,North,7,15.0,21.0,97,0.00,,,0.00,383.000000,,2013-07-24 19:12:00,
2013-07-24 12:22:00,50.0,49.0,30.08,North,9,16.0,22.0,97,0.00,,,0.00,438.000000,,2013-07-24 19:22:00,
2013-07-24 12:43:00,52.0,51.0,30.08,North,11,16.0,23.0,97,0.00,,,0.00,613.000000,,2013-07-24 19:43:00,
2013-07-24 12:53:00,52.0,51.0,30.08,North,11,16.0,23.0,97,0.00,,,0.00,613.000000,,2013-07-24 19:53:00,
2013-07-24 13:02:00,52.0,51.0,30.08,North,8,14.0,23.0,96,0.00,,,0.00,659.000000,,2013-07-24 20:02:00,
2013-07-24 13:13:00,52.0,51.0,30.08,NNE,13,14.0,18.0,96,0.00,,,0.00,666.000000,,2013-07-24 20:13:00,
2013-07-24 13:22:00,52.0,51.0,30.08,NNE,13,14.0,18.0,96,0.00,,,0.00,666.000000,,2013-07-24 20:22:00,
2013-07-24 13:32:00,52.0,51.0,30.08,NNE,16,16.0,21.0,96,0.00,,,0.00,577.000000,,2013-07-24 20:32:00,
2013-07-24 13:42:00,52.0,51.0,30.08,NNE,17,17.0,24.0,96,0.00,,,0.00,631.000000,,2013-07-24 20:42:00,
2013-07-24 13:52:00,52.0,51.0,30.08,NNE,17,17.0,24.0,96,0.00,,,0.00,631.000000,,2013-07-24 20:52:00,
2013-07-24 14:02:00,52.0,51.0,30.08,North,7,16.0,23.0,96,0.00,,,0.00,621.000000,,2013-07-24 21:02:00,
2013-07-24 14:12:00,52.0,51.0,30.07,North,7,18.0,22.0,95,0.00,,,0.00,624.000000,,2013-07-24 21:12:00,
2013-07-24 14:22:00,52.0,51.0,30.07,North,7,18.0,22.0,95,0.00,,,0.00,624.000000,,2013-07-24 21:22:00,
2013-07-24 14:32:00,52.0,51.0,30.08,NNE,18,14.0,23.0,95,0.00,,,0.00,596.000000,,2013-07-24 21:32:00,
2013-07-24 14:43:00,53.0,52.0,30.08,NNE,19,14.0,18.0,95,0.00,,,0.00,603.000000,,2013-07-24 21:43:00,
2013-07-24 14:52:00,53.0,52.0,30.08,NNE,19,14.0,18.0,95,0.00,,,0.00,603.000000,,2013-07-24 21:52:00,
2013-07-24 15:02:00,53.0,52.0,30.08,NNE,21,14.0,22.0,95,0.00,,,0.00,610.000000,,2013-07-24 22:02:00,
2013-07-24 15:22:00,53.0,51.0,30.08,NNE,29,13.0,21.0,94,0.00,,,0.00,527.000000,,2013-07-24 22:22:00,
2013-07-24 15:42:00,53.0,52.0,30.08,North,11,16.0,25.0,95,0.00,,,0.00,434.000000,,2013-07-24 22:42:00,
2013-07-24 15:53:00,53.0,52.0,30.08,North,11,16.0,25.0,95,0.00,,,0.00,434.000000,,2013-07-24 22:53:00,
2013-07-24 16:22:00,53.0,51.0,30.08,NNE,24,18.0,23.0,94,0.00,,,0.00,341.000000,,2013-07-24 23:22:00,
2013-07-24 16:32:00,53.0,51.0,30.07,NNE,15,16.0,24.0,94,0.00,,,0.00,346.000000,,2013-07-24 23:32:00,
2013-07-24 16:52:00,54.0,52.0,30.07,North,360,17.0,24.0,94,0.00,,,0.00,308.000000,,2013-07-24 23:52:00,
2013-07-24 17:22:00,53.0,52.0,30.07,NNE,19,14.0,19.0,95,0.00,,,0.00,258.000000,,2013-07-25 00:22:00,
2013-07-24 17:32:00,53.0,52.0,30.07,North,8,17.0,24.0,95,0.00,,,0.00,244.000000,,2013-07-25 00:32:00,
2013-07-24 17:52:00,53.0,52.0,30.07,NNE,31,15.0,23.0,95,0.00,,,0.00,246.000000,,2013-07-25 00:52:00,
2013-07-24 18:11:00,53.0,51.0,30.06,North,11,15.0,22.0,94,0.00,,,0.00,248.000000,,2013-07-25 01:11:00,
2013-07-24 18:21:00,53.0,51.0,30.06,NNE,14,14.0,19.0,94,0.00,,,0.00,237.000000,,2013-07-25 01:21:00,
2013-07-24 18:32:00,53.0,51.0,30.06,NNE,27,14.0,19.0,93,0.00,,,0.00,192.000000,,2013-07-25 01:32:00,
2013-07-24 18:53:00,53.0,51.0,30.06,North,6,14.0,19.0,93,0.00,,,0.00,148.000000,,2013-07-25 01:53:00,
2013-07-24 19:02:00,53.0,51.0,30.06,North,4,17.0,23.0,94,0.00,,,0.00,294.000000,,2013-07-25 02:02:00,
2013-07-24 19:12:00,53.0,51.0,30.06,North,4,17.0,23.0,94,0.00,,,0.00,294.000000,,2013-07-25 02:12:00,
2013-07-24 19:22:00,53.0,51.0,30.06,North,3,17.0,23.0,93,0.00,,,0.00,207.000000,,2013-07-25 02:22:00,
2013-07-24 19:33:00,53.0,51.0,30.06,NNE,32,15.0,24.0,93,0.00,,,0.00,90.000000,,2013-07-25 02:33:00,
2013-07-24 19:43:00,52.0,50.0,30.06,NNE,17,15.0,25.0,93,0.00,,,0.00,56.000000,,2013-07-25 02:43:00,
2013-07-24 19:52:00,52.0,50.0,30.06,NNE,17,15.0,25.0,93,0.00,,,0.00,56.000000,,2013-07-25 02:52:00,
2013-07-24 20:02:00,51.0,49.0,30.06,NNE,15,14.0,22.0,94,0.00,,,0.00,56.000000,,2013-07-25 03:02:00,
2013-07-24 20:11:00,51.0,49.0,30.06,NNE,15,14.0,22.0,94,0.00,,,0.00,56.000000,,2013-07-25 03:11:00,
2013-07-24 20:23:00,51.0,50.0,30.06,North,5,17.0,23.0,95,0.00,,,0.00,42.000000,,2013-07-25 03:23:00,
2013-07-24 20:33:00,51.0,50.0,30.06,North,11,16.0,24.0,95,0.00,,,0.00,23.000000,,2013-07-25 03:33:00,
2013-07-24 20:43:00,50.0,49.0,30.06,NNE,17,17.0,22.0,95,0.00,,,0.00,11.000000,,2013-07-25 03:43:00,
2013-07-24 20:52:00,50.0,49.0,30.06,NNE,17,17.0,22.0,95,0.00,,,0.00,11.000000,,2013-07-25 03:52:00,
2013-07-24 21:02:00,50.0,49.0,30.06,North,6,15.0,23.0,95,0.00,,,0.00,0.000000,,2013-07-25 04:02:00,
2013-07-24 21:11:00,50.0,49.0,30.06,North,6,15.0,23.0,95,0.00,,,0.00,0.000000,,2013-07-25 04:11:00,
2013-07-24 21:22:00,50.0,49.0,30.06,North,10,20.0,24.0,96,0.00,,,0.00,0.000000,,2013-07-25 04:22:00,
2013-07-24 21:43:00,50.0,49.0,30.06,NNE,25,14.0,21.0,96,0.00,,,0.00,0.000000,,2013-07-25 04:43:00,
2013-07-24 21:53:00,50.0,49.0,30.06,NNE,25,14.0,21.0,96,0.00,,,0.00,0.000000,,2013-07-25 04:53:00,
2013-07-24 22:02:00,49.0,48.0,30.07,NNE,19,14.0,19.0,96,0.00,,,0.00,0.000000,,2013-07-25 05:02:00,
2013-07-24 22:11:00,49.0,48.0,30.07,NNE,19,14.0,19.0,96,0.00,,,0.00,0.000000,,2013-07-25 05:11:00,
2013-07-24 22:21:00,49.0,48.0,30.07,North,8,15.0,18.0,96,0.00,,,0.00,0.000000,,2013-07-25 05:21:00,
2013-07-24 22:32:00,49.0,48.0,30.07,North,8,15.0,18.0,96,0.00,,,0.00,0.000000,,2013-07-25 05:32:00,
2013-07-24 22:43:00,48.0,47.0,30.07,North,11,18.0,23.0,96,0.00,,,0.00,0.000000,,2013-07-25 05:43:00,
2013-07-24 22:52:00,48.0,47.0,30.07,North,11,18.0,23.0,96,0.00,,,0.00,0.000000,,2013-07-25 05:52:00,
2013-07-24 23:02:00,48.0,47.0,30.07,North,2,15.0,22.0,97,0.00,,,0.00,0.000000,,2013-07-25 06:02:00,
2013-07-24 23:11:00,48.0,47.0,30.07,North,2,15.0,22.0,97,0.00,,,0.00,0.000000,,2013-07-25 06:11:00,
2013-07-24 23:22:00,48.0,47.0,30.08,North,360,15.0,19.0,97,0.00,,,0.00,0.000000,,2013-07-25 06:22:00,
2013-07-24 23:32:00,47.0,46.0,30.08,North,8,15.0,19.0,97,0.00,,,0.00,0.000000,,2013-07-25 06:32:00,
2013-07-24 23:42:00,47.0,46.0,30.07,North,7,15.0,19.0,97,0.00,,,0.00,0.000000,,2013-07-25 06:42:00,
2013-07-24 23:52:00,47.0,46.0,30.07,North,7,15.0,19.0,97,0.00,,,0.00,0.000000,,2013-07-25 06:52:00,